createdAt,value
2017-06-22T00:00:46.951Z,99.90
2017-06-22T00:03:15.114Z,99.90
2017-06-22T00:05:43.383Z,99.90
2017-06-22T00:08:11.511Z,99.90
2017-06-22T00:10:39.615Z,99.90
2017-06-22T00:13:07.883Z,99.90
2017-06-22T00:15:35.988Z,99.90
2017-06-22T00:18:04.567Z,99.90
2017-06-22T00:20:33.359Z,99.90
2017-06-22T00:23:01.495Z,99.90
2017-06-22T00:25:30.947Z,99.90
2017-06-22T00:27:59.615Z,99.90
2017-06-22T00:30:28.311Z,99.90
2017-06-22T00:32:57.102Z,99.90
2017-06-22T00:35:25.858Z,99.90
2017-06-22T00:37:53.995Z,99.90
2017-06-22T00:40:22.659Z,99.90
2017-06-22T00:42:51.755Z,99.90
2017-06-22T00:45:20.400Z,99.90
2017-06-22T00:47:49.747Z,99.90
2017-06-22T00:50:18.639Z,99.90
2017-06-22T00:52:46.768Z,99.90
2017-06-22T00:55:15.911Z,99.90
2017-06-22T00:57:44.591Z,99.90
2017-06-22T01:00:13.393Z,99.90
2017-06-22T01:02:42.135Z,99.90
2017-06-22T01:05:10.360Z,99.90
2017-06-22T01:07:38.487Z,99.90
2017-06-22T01:10:06.619Z,99.90
2017-06-22T01:12:35.302Z,99.90
2017-06-22T01:15:03.920Z,99.90
2017-06-22T01:17:33.127Z,99.90
2017-06-22T01:20:02.888Z,99.90
2017-06-22T01:22:31.779Z,99.90
2017-06-22T01:25:00.373Z,99.90
2017-06-22T01:27:29.191Z,99.90
2017-06-22T01:29:57.839Z,99.90
2017-06-22T01:32:26.478Z,99.90
2017-06-22T01:34:56.035Z,99.90
2017-06-22T01:37:24.676Z,99.90
2017-06-22T01:39:54.011Z,99.90
2017-06-22T01:42:22.339Z,99.90
2017-06-22T01:44:50.671Z,99.90
2017-06-22T01:47:18.875Z,99.90
2017-06-22T01:49:47.171Z,99.90
2017-06-22T01:52:15.418Z,99.90
2017-06-22T01:54:43.583Z,99.90
2017-06-22T01:57:11.847Z,99.90
2017-06-22T01:59:40.035Z,99.90
2017-06-22T02:02:08.091Z,99.90
2017-06-22T02:04:36.839Z,99.90
2017-06-22T02:07:05.023Z,99.90
2017-06-22T02:09:34.389Z,99.90
2017-06-22T02:12:02.638Z,99.90
2017-06-22T02:14:30.795Z,99.90
2017-06-22T02:16:58.943Z,99.90
2017-06-22T02:19:27.211Z,99.90
2017-06-22T02:21:55.345Z,99.90
2017-06-22T02:24:23.467Z,99.90
2017-06-22T02:26:51.691Z,99.90
2017-06-22T02:29:19.787Z,99.90
2017-06-22T02:31:47.924Z,99.90
2017-06-22T02:34:16.107Z,99.90
2017-06-22T02:36:44.243Z,99.90
2017-06-22T02:39:12.385Z,99.90
2017-06-22T02:41:40.623Z,99.90
2017-06-22T02:44:08.805Z,99.90
2017-06-22T02:46:36.999Z,99.90
2017-06-22T02:49:05.583Z,99.90
2017-06-22T02:51:33.651Z,99.90
2017-06-22T02:54:02.188Z,99.90
2017-06-22T02:56:30.879Z,99.90
2017-06-22T02:58:59.683Z,99.90
2017-06-22T03:01:27.783Z,99.90
2017-06-22T03:03:56.035Z,99.90
2017-06-22T03:06:25.479Z,99.90
2017-06-22T03:08:54.222Z,99.90
2017-06-22T03:11:22.415Z,99.90
2017-06-22T03:13:51.027Z,99.90
2017-06-22T03:16:19.719Z,99.90
2017-06-22T03:18:49.579Z,99.90
2017-06-22T03:21:17.695Z,99.90
2017-06-22T03:23:46.339Z,99.90
2017-06-22T03:26:14.632Z,99.90
2017-06-22T03:28:42.767Z,99.90
2017-06-22T03:31:11.331Z,99.90
2017-06-22T03:33:39.550Z,99.90
2017-06-22T03:36:07.799Z,99.90
2017-06-22T03:38:35.987Z,99.90
2017-06-22T03:41:04.411Z,99.90
2017-06-22T03:43:32.511Z,99.90
2017-06-22T03:46:00.619Z,99.90
2017-06-22T03:48:29.077Z,99.90
2017-06-22T03:50:57.247Z,99.90
2017-06-22T03:53:25.684Z,99.90
2017-06-22T03:55:54.106Z,99.90
2017-06-22T03:58:22.239Z,99.90
2017-06-22T04:00:50.371Z,99.90
2017-06-22T04:03:18.749Z,99.90
2017-06-22T04:05:46.835Z,99.90
2017-06-22T04:21:10.680Z,99.90
2017-06-22T04:23:38.823Z,99.90
2017-06-22T04:26:06.954Z,99.90
2017-06-22T04:28:35.251Z,99.90
2017-06-22T04:31:04.868Z,99.90
2017-06-22T04:33:34.225Z,99.90
2017-06-22T04:36:03.108Z,99.90
2017-06-22T04:38:31.951Z,99.90
2017-06-22T04:41:01.195Z,99.90
2017-06-22T04:43:29.839Z,99.90
2017-06-22T04:45:57.959Z,99.90
2017-06-22T04:48:26.090Z,99.90
2017-06-22T04:50:54.451Z,99.90
2017-06-22T04:53:22.548Z,99.90
2017-06-22T04:55:50.675Z,99.90
2017-06-22T04:58:18.939Z,99.80
2017-06-22T05:00:47.072Z,97.00
2017-06-22T05:03:15.166Z,95.10
2017-06-22T05:05:43.430Z,94.00
2017-06-22T05:08:11.571Z,92.70
2017-06-22T05:10:39.671Z,92.80
2017-06-22T05:13:07.964Z,93.70
2017-06-22T05:15:36.103Z,94.20
2017-06-22T05:18:04.693Z,95.40
2017-06-22T05:20:33.975Z,97.00
2017-06-22T05:23:02.075Z,97.20
2017-06-22T05:25:31.423Z,96.40
2017-06-22T05:28:00.382Z,96.40
2017-06-22T05:30:29.211Z,95.10
2017-06-22T05:32:58.212Z,92.90
2017-06-22T05:35:27.203Z,91.70
2017-06-22T05:37:55.299Z,90.30
2017-06-22T05:40:24.060Z,87.40
2017-06-22T05:42:52.908Z,84.80
2017-06-22T05:45:22.355Z,87.50
2017-06-22T05:47:50.499Z,87.40
2017-06-22T05:50:18.776Z,86.90
2017-06-22T05:52:47.655Z,88.90
2017-06-22T05:55:17.003Z,91.90
2017-06-22T05:57:45.895Z,91.80
2017-06-22T06:00:14.639Z,91.80
2017-06-22T06:02:43.878Z,92.40
2017-06-22T06:05:12.879Z,92.30
2017-06-22T06:07:41.623Z,92.90
2017-06-22T06:10:11.192Z,92.50
2017-06-22T06:12:40.043Z,92.40
2017-06-22T06:15:08.252Z,90.20
2017-06-22T06:17:36.871Z,87.60
2017-06-22T06:20:05.609Z,83.60
2017-06-22T06:22:33.732Z,80.00
2017-06-22T06:25:01.835Z,76.90
2017-06-22T06:27:30.859Z,74.80
2017-06-22T06:29:59.007Z,73.70
2017-06-22T06:32:27.559Z,72.20
2017-06-22T06:34:57.229Z,70.20
2017-06-22T06:37:26.015Z,69.30
2017-06-22T06:39:54.215Z,72.50
2017-06-22T06:42:22.539Z,77.80
2017-06-22T06:44:50.611Z,78.20
2017-06-22T06:47:18.763Z,78.10
2017-06-22T06:49:47.091Z,78.10
2017-06-22T06:52:15.275Z,79.00
2017-06-22T06:54:43.532Z,80.10
2017-06-22T06:57:11.737Z,83.20
2017-06-22T06:59:40.355Z,86.40
2017-06-22T07:02:08.901Z,88.30
2017-06-22T07:04:37.643Z,88.10
2017-06-22T07:07:07.039Z,87.50
2017-06-22T07:09:36.336Z,86.60
2017-06-22T07:12:04.577Z,86.50
2017-06-22T07:14:32.823Z,87.70
2017-06-22T07:17:00.976Z,88.30
2017-06-22T07:19:29.246Z,85.10
2017-06-22T07:21:57.363Z,82.00
2017-06-22T07:24:25.439Z,81.30
2017-06-22T07:26:53.704Z,78.60
2017-06-22T07:29:21.847Z,74.40
2017-06-22T07:31:49.991Z,71.30
2017-06-22T07:34:18.259Z,71.80
2017-06-22T07:36:46.399Z,72.60
2017-06-22T07:39:14.463Z,74.50
2017-06-22T07:41:42.762Z,74.20
2017-06-22T07:44:10.840Z,75.00
2017-06-22T07:46:38.948Z,79.60
2017-06-22T07:49:07.811Z,84.00
2017-06-22T07:51:36.706Z,86.80
2017-06-22T07:54:05.292Z,89.10
2017-06-22T07:56:34.167Z,90.80
2017-06-22T07:59:02.855Z,91.40
2017-06-22T08:01:31.665Z,91.30
2017-06-22T08:04:00.548Z,91.30
2017-06-22T08:06:29.236Z,91.10
2017-06-22T08:08:57.756Z,91.00
2017-06-22T08:11:26.504Z,91.00
2017-06-22T08:13:55.251Z,91.20
2017-06-22T08:16:24.591Z,90.80
2017-06-22T08:18:53.484Z,90.80
2017-06-22T08:21:22.232Z,91.60
2017-06-22T08:23:51.571Z,91.50
2017-06-22T08:26:20.377Z,91.50
2017-06-22T08:28:48.478Z,92.00
2017-06-22T08:31:17.022Z,91.80
2017-06-22T08:33:45.923Z,91.70
2017-06-22T08:36:14.712Z,91.90
2017-06-22T08:38:42.856Z,91.70
2017-06-22T08:41:11.569Z,91.60
2017-06-22T08:43:40.260Z,91.10
2017-06-22T08:46:08.449Z,91.10
2017-06-22T08:48:36.667Z,90.80
2017-06-22T08:51:04.819Z,91.30
2017-06-22T08:53:32.891Z,91.50
2017-06-22T08:56:01.183Z,91.60
2017-06-22T08:58:29.526Z,91.20
2017-06-22T09:00:57.667Z,91.60
2017-06-22T09:03:26.691Z,91.30
2017-06-22T09:05:55.584Z,91.10
2017-06-22T09:08:24.481Z,91.00
2017-06-22T09:10:53.247Z,91.60
2017-06-22T09:13:21.958Z,90.90
2017-06-22T09:15:50.108Z,91.10
2017-06-22T09:18:18.371Z,90.90
2017-06-22T09:20:46.537Z,91.00
2017-06-22T09:23:14.704Z,91.10
2017-06-22T09:25:42.966Z,91.20
2017-06-22T09:28:11.067Z,91.30
2017-06-22T09:30:39.251Z,91.80
2017-06-22T09:33:07.568Z,92.00
2017-06-22T09:35:35.691Z,92.20
2017-06-22T09:38:03.840Z,92.00
2017-06-22T09:40:32.143Z,91.80
2017-06-22T09:43:00.247Z,91.70
2017-06-22T09:45:28.438Z,91.80
2017-06-22T09:47:56.706Z,92.60
2017-06-22T09:50:25.004Z,92.80
2017-06-22T09:52:53.079Z,93.10
2017-06-22T09:55:21.307Z,93.80
2017-06-22T09:57:49.476Z,93.60
2017-06-22T10:00:17.931Z,93.10
2017-06-22T10:02:46.260Z,93.30
2017-06-22T10:05:14.463Z,93.70
2017-06-22T10:07:42.699Z,93.90
2017-06-22T10:10:11.048Z,93.70
2017-06-22T10:12:39.156Z,94.50
2017-06-22T10:15:07.266Z,94.10
2017-06-22T10:17:35.471Z,94.20
2017-06-22T10:20:03.691Z,94.10
2017-06-22T10:35:22.831Z,93.80
2017-06-22T10:37:50.960Z,92.30
2017-06-22T10:40:19.096Z,92.00
2017-06-22T10:42:47.304Z,92.30
2017-06-22T10:45:15.447Z,92.00
2017-06-22T10:47:43.708Z,91.40
2017-06-22T10:50:12.059Z,91.20
2017-06-22T10:52:40.699Z,91.70
2017-06-22T10:55:09.388Z,91.60
2017-06-22T10:57:38.499Z,91.60
2017-06-22T11:00:06.868Z,91.90
2017-06-22T11:02:35.272Z,92.40
2017-06-22T11:05:03.580Z,92.10
2017-06-22T11:07:33.164Z,91.60
2017-06-22T11:10:01.369Z,91.60
2017-06-22T11:12:30.919Z,93.00
2017-06-22T11:14:59.083Z,93.00
2017-06-22T11:17:27.873Z,93.50
2017-06-22T11:19:56.268Z,93.70
2017-06-22T11:22:24.939Z,94.00
2017-06-22T11:24:53.195Z,94.30
2017-06-22T11:27:22.275Z,94.60
2017-06-22T11:29:50.495Z,94.70
2017-06-22T11:32:19.083Z,94.50
2017-06-22T11:34:47.927Z,94.10
2017-06-22T11:37:17.215Z,94.60
2017-06-22T11:39:45.923Z,94.60
2017-06-22T11:42:15.311Z,95.00
2017-06-22T11:44:44.160Z,94.90
2017-06-22T11:47:12.431Z,95.70
2017-06-22T11:49:40.793Z,95.10
2017-06-22T11:52:08.960Z,95.60
2017-06-22T11:54:37.135Z,96.20
2017-06-22T11:57:05.466Z,96.50
2017-06-22T11:59:33.631Z,96.50
2017-06-22T12:02:01.864Z,96.70
2017-06-22T12:04:30.351Z,96.10
2017-06-22T12:06:59.223Z,96.20
2017-06-22T12:09:28.795Z,96.10
2017-06-22T12:11:57.468Z,96.00
2017-06-22T12:14:25.620Z,96.40
2017-06-22T12:16:54.443Z,96.50
2017-06-22T12:19:23.330Z,95.10
2017-06-22T12:21:51.551Z,95.20
2017-06-22T12:24:21.120Z,95.00
2017-06-22T12:26:49.456Z,95.00
2017-06-22T12:29:17.720Z,95.20
2017-06-22T12:31:45.939Z,93.30
2017-06-22T12:34:14.276Z,93.80
2017-06-22T12:36:42.490Z,95.30
2017-06-22T12:39:10.695Z,94.30
2017-06-22T12:41:38.948Z,95.30
2017-06-22T12:44:07.166Z,94.20
2017-06-22T12:46:35.387Z,94.50
2017-06-22T12:49:03.895Z,97.90
2017-06-22T12:51:32.130Z,97.50
2017-06-22T12:54:00.350Z,97.00
2017-06-22T12:56:28.668Z,97.90
2017-06-22T12:58:58.275Z,97.30
2017-06-22T13:01:27.837Z,98.40
2017-06-22T13:03:56.935Z,98.40
2017-06-22T13:06:32.324Z,98.10
2017-06-22T13:09:01.984Z,99.90
2017-06-22T13:11:30.605Z,99.90
2017-06-22T13:13:59.151Z,99.90
2017-06-22T13:16:28.044Z,99.90
2017-06-22T13:18:56.835Z,99.90
2017-06-22T13:21:25.420Z,99.90
2017-06-22T13:23:53.809Z,99.90
2017-06-22T13:26:22.487Z,99.90
2017-06-22T13:28:51.163Z,99.90
2017-06-22T13:31:19.875Z,99.90
2017-06-22T13:33:48.707Z,99.90
2017-06-22T13:36:16.884Z,99.90
2017-06-22T13:38:46.375Z,99.90
2017-06-22T13:41:15.327Z,99.90
2017-06-22T13:43:44.221Z,99.90
2017-06-22T13:46:12.543Z,99.90
2017-06-22T13:48:40.711Z,99.90
2017-06-22T13:51:09.260Z,99.90
2017-06-22T13:53:38.088Z,99.90
2017-06-22T13:56:06.724Z,99.90
2017-06-22T13:58:35.475Z,99.90
2017-06-22T14:01:05.067Z,99.90
2017-06-22T14:03:33.775Z,99.90
2017-06-22T14:06:03.216Z,99.90
2017-06-22T14:08:32.218Z,99.90
2017-06-22T14:11:00.396Z,99.90
2017-06-22T14:13:28.927Z,99.90
2017-06-22T14:15:58.500Z,99.60
2017-06-22T14:18:26.703Z,99.50
2017-06-22T14:20:55.456Z,99.90
2017-06-22T14:23:24.156Z,99.90
2017-06-22T14:25:52.327Z,99.90
2017-06-22T14:28:20.523Z,99.90
2017-06-22T14:30:48.812Z,99.90
2017-06-22T14:33:17.020Z,99.90
2017-06-22T14:35:45.835Z,99.90
2017-06-22T14:38:14.168Z,99.90
2017-06-22T14:40:43.619Z,99.90
2017-06-22T14:43:12.317Z,99.90
2017-06-22T14:45:40.648Z,99.90
2017-06-22T14:48:08.866Z,99.90
2017-06-22T14:50:37.023Z,99.90
2017-06-22T14:53:05.327Z,99.90
2017-06-22T14:55:33.503Z,99.90
2017-06-22T14:58:01.669Z,99.90
2017-06-22T15:00:29.996Z,99.90
2017-06-22T15:02:58.172Z,99.90
2017-06-22T15:05:26.312Z,99.90
2017-06-22T15:07:54.556Z,99.90
2017-06-22T15:10:22.908Z,99.90
2017-06-22T15:12:51.116Z,99.90
2017-06-22T15:15:19.415Z,99.90
2017-06-22T15:17:47.605Z,99.90
2017-06-22T15:20:15.751Z,99.90
2017-06-22T15:22:44.097Z,99.90
2017-06-22T15:25:12.707Z,99.90
2017-06-22T15:27:41.959Z,99.90
2017-06-22T15:30:10.267Z,99.90
2017-06-22T15:32:38.424Z,99.90
2017-06-22T15:35:06.706Z,99.90
2017-06-22T15:37:34.956Z,99.90
2017-06-22T15:40:03.511Z,99.90
2017-06-22T15:42:31.731Z,99.90
2017-06-22T15:45:00.124Z,99.90
2017-06-22T15:47:28.268Z,99.90
2017-06-22T15:49:56.436Z,99.90
2017-06-22T15:52:24.739Z,99.90
2017-06-22T15:54:53.575Z,99.90
2017-06-22T15:57:21.763Z,99.90
2017-06-22T15:59:50.471Z,99.90
2017-06-22T16:02:19.127Z,99.90
2017-06-22T16:04:48.032Z,99.90
2017-06-22T16:07:16.919Z,99.90
2017-06-22T16:09:45.607Z,99.90
2017-06-22T16:12:13.979Z,99.90
2017-06-22T16:14:42.873Z,99.90
2017-06-22T16:17:11.079Z,99.90
2017-06-22T16:19:39.779Z,99.90
2017-06-22T16:22:08.627Z,99.90
2017-06-22T16:24:36.807Z,99.90
2017-06-22T16:27:05.505Z,99.90
2017-06-22T16:29:34.324Z,99.90
2017-06-22T16:32:02.963Z,99.90
2017-06-22T16:34:31.819Z,99.90
2017-06-22T16:37:01.363Z,99.90
2017-06-22T16:39:30.059Z,99.90
2017-06-22T16:41:58.317Z,99.90
2017-06-22T16:44:26.615Z,99.90
2017-06-22T16:46:55.461Z,99.90
2017-06-22T16:49:23.639Z,99.90
2017-06-22T16:51:51.939Z,99.90
2017-06-22T16:54:20.203Z,99.90
2017-06-22T16:56:48.379Z,99.90
2017-06-22T16:59:16.678Z,99.90
2017-06-22T17:01:44.896Z,99.90
2017-06-22T17:04:13.487Z,99.90
2017-06-22T17:06:41.819Z,99.90
2017-06-22T17:09:10.041Z,99.90
2017-06-22T17:11:38.294Z,99.90
2017-06-22T17:14:07.266Z,99.90
2017-06-22T17:16:35.801Z,99.90
2017-06-22T17:19:04.063Z,99.90
2017-06-22T17:21:32.326Z,99.90
2017-06-22T17:24:00.476Z,99.90
2017-06-22T17:26:28.655Z,99.90
2017-06-22T17:28:56.963Z,99.90
2017-06-22T17:31:25.135Z,99.90
2017-06-22T17:33:53.319Z,99.90
2017-06-22T17:36:21.587Z,99.90
2017-06-22T17:38:49.803Z,99.90
2017-06-22T17:41:17.940Z,99.90
2017-06-22T17:43:46.235Z,99.90
2017-06-22T17:46:14.474Z,99.90
2017-06-22T17:48:42.608Z,99.90
2017-06-22T17:51:10.947Z,99.90
2017-06-22T17:53:39.151Z,99.90
2017-06-22T17:56:07.364Z,99.90
2017-06-22T17:58:35.963Z,99.90
2017-06-22T18:01:04.658Z,99.90
2017-06-22T18:03:33.499Z,99.90
2017-06-22T18:06:03.150Z,99.90
2017-06-22T18:08:31.849Z,99.90
2017-06-22T18:11:00.687Z,99.90
2017-06-22T18:13:30.288Z,99.90
2017-06-22T18:15:59.037Z,99.90
2017-06-22T18:18:27.987Z,99.90
2017-06-22T18:20:56.627Z,99.90
2017-06-22T18:23:24.840Z,99.90
2017-06-22T18:25:54.231Z,99.90
2017-06-22T18:28:23.128Z,99.90
2017-06-22T18:30:51.932Z,99.90
2017-06-22T18:33:20.155Z,99.90
2017-06-22T18:35:49.083Z,99.90
2017-06-22T18:38:17.303Z,99.90
2017-06-22T18:40:45.523Z,99.90
2017-06-22T18:43:14.389Z,99.90
2017-06-22T18:45:43.187Z,99.90
2017-06-22T18:48:12.027Z,99.90
2017-06-22T18:50:41.615Z,99.90
2017-06-22T18:53:10.260Z,99.90
2017-06-22T18:55:39.051Z,99.90
2017-06-22T18:58:07.367Z,99.90
2017-06-22T19:00:36.127Z,99.90
2017-06-22T19:03:04.972Z,99.40
2017-06-22T19:05:34.515Z,98.00
2017-06-22T19:08:02.703Z,98.00
2017-06-22T19:10:31.420Z,98.10
2017-06-22T19:13:00.160Z,98.20
2017-06-22T19:15:28.812Z,98.70
2017-06-22T19:17:57.163Z,99.00
2017-06-22T19:20:25.468Z,99.00
2017-06-22T19:22:53.616Z,98.90
2017-06-22T19:25:21.796Z,98.80
2017-06-22T19:27:50.132Z,99.20
2017-06-22T19:30:18.325Z,99.10
2017-06-22T19:45:43.311Z,99.70
2017-06-22T19:48:11.949Z,99.60
2017-06-22T19:50:41.617Z,99.90
2017-06-22T19:53:10.007Z,99.90
2017-06-22T19:55:38.575Z,99.90
2017-06-22T19:58:06.823Z,99.90
2017-06-22T20:00:35.115Z,99.90
2017-06-22T20:03:03.323Z,99.90
2017-06-22T20:05:31.504Z,99.90
2017-06-22T20:07:59.803Z,99.90
2017-06-22T20:10:27.959Z,99.90
2017-06-22T20:12:56.183Z,99.90
2017-06-22T20:15:24.487Z,99.90
2017-06-22T20:17:52.707Z,99.90
2017-06-22T20:20:21.091Z,99.70
2017-06-22T20:22:49.400Z,99.90
2017-06-22T20:25:17.664Z,99.90
2017-06-22T20:27:47.118Z,99.90
2017-06-22T20:30:15.443Z,99.90
2017-06-22T20:32:44.935Z,99.90
2017-06-22T20:35:13.580Z,99.90
2017-06-22T20:37:41.923Z,99.90
2017-06-22T20:40:10.554Z,99.90
2017-06-22T20:42:39.219Z,99.90
2017-06-22T20:45:08.315Z,99.90
2017-06-22T20:47:37.011Z,99.90
2017-06-22T20:50:05.908Z,99.90
2017-06-22T20:52:34.955Z,99.90
2017-06-22T20:55:03.195Z,99.90
2017-06-22T20:57:31.663Z,99.90
2017-06-22T21:00:00.015Z,99.90
2017-06-22T21:02:28.663Z,99.70
2017-06-22T21:04:57.417Z,99.00
2017-06-22T21:07:26.366Z,98.40
2017-06-22T21:09:54.551Z,98.00
2017-06-22T21:12:23.208Z,97.90
2017-06-22T21:14:52.058Z,97.80
2017-06-22T21:17:20.808Z,98.00
2017-06-22T21:19:50.352Z,98.10
2017-06-22T21:22:19.552Z,98.20
2017-06-22T21:24:47.719Z,98.00
2017-06-22T21:27:16.327Z,97.80
2017-06-22T21:29:45.207Z,97.90
2017-06-22T21:32:19.135Z,97.80
2017-06-22T21:34:47.349Z,97.70
2017-06-22T21:37:16.699Z,97.30
2017-06-22T21:39:45.592Z,97.30
2017-06-22T21:42:14.579Z,97.90
2017-06-22T21:44:43.331Z,98.20
2017-06-22T21:47:12.676Z,98.30
2017-06-22T21:49:41.672Z,98.20
2017-06-22T21:52:09.887Z,98.40
2017-06-22T21:54:38.080Z,98.50
2017-06-22T21:57:06.395Z,98.20
2017-06-22T21:59:34.527Z,98.30
2017-06-22T22:02:02.724Z,98.50
2017-06-22T22:04:30.984Z,99.00
2017-06-22T22:07:00.320Z,98.60
2017-06-22T22:09:29.128Z,98.50
2017-06-22T22:11:58.072Z,98.50
2017-06-22T22:14:27.511Z,98.10
2017-06-22T22:16:56.207Z,98.10
2017-06-22T22:19:24.544Z,98.70
2017-06-22T22:21:54.048Z,98.80
2017-06-22T22:24:22.448Z,98.80
2017-06-22T22:26:50.851Z,99.30
2017-06-22T22:29:18.983Z,99.20
2017-06-22T22:31:47.143Z,99.20
2017-06-22T22:34:15.484Z,99.50
2017-06-22T22:36:43.655Z,99.80
2017-06-22T22:39:11.841Z,99.90
2017-06-22T22:41:40.180Z,99.90
2017-06-22T22:44:08.387Z,99.90
2017-06-22T22:46:36.569Z,99.90
2017-06-22T22:49:04.895Z,99.90
2017-06-22T22:51:33.124Z,99.90
2017-06-22T22:54:01.257Z,99.90
2017-06-22T22:56:29.875Z,99.90
2017-06-22T22:58:58.671Z,99.90
2017-06-22T23:01:26.859Z,99.90
2017-06-22T23:03:55.624Z,99.90
2017-06-22T23:06:23.803Z,99.90
2017-06-22T23:08:52.400Z,99.90
2017-06-22T23:11:21.187Z,99.90
2017-06-22T23:13:49.871Z,99.90
2017-06-22T23:16:18.659Z,99.90
2017-06-22T23:18:47.372Z,99.90
2017-06-22T23:21:15.631Z,99.90
2017-06-22T23:23:44.312Z,99.90
2017-06-22T23:26:13.091Z,99.90
2017-06-22T23:28:41.348Z,99.90
2017-06-22T23:31:10.230Z,99.90
2017-06-22T23:33:39.775Z,99.90
2017-06-22T23:36:08.456Z,99.90
2017-06-22T23:38:37.255Z,99.90
2017-06-22T23:41:05.556Z,99.90
2017-06-22T23:43:36.779Z,99.90
2017-06-22T23:46:05.473Z,99.90
2017-06-22T23:48:34.304Z,99.90
2017-06-22T23:51:03.923Z,99.90
2017-06-22T23:53:33.363Z,99.90
2017-06-22T23:56:01.703Z,99.90
2017-06-22T23:58:29.883Z,99.90
